Time;durP1;ratioP1;P1;durP2;ratioP2;P2;SDS_P1;SDS_P2;PMS_P1;PMS_P2;Temp;Humidity;BMP_temperature;BMP_pressure;BME280_temperature;BME280_humidity;BME280_pressure;Samples;Min_cycle;Max_cycle;Signal;HPM_P1;HPM_P2
2023/12/18 00:01:27;;;;;;;0.20;0.20;;;;;;;9.69;68.10;103298.75;5079292;28;20028;-80
2023/12/18 00:03:54;;;;;;;0.20;0.20;;;;;;;9.70;67.71;103295.22;5078328;28;20391;-81
2023/12/18 00:06:20;;;;;;;0.30;0.30;;;;;;;9.79;67.65;103298.94;5077121;28;20028;-80
2023/12/18 00:08:46;;;;;;;0.65;0.65;;;;;;;9.71;67.84;103298.78;5071084;28;20029;-80
2023/12/18 00:11:14;;;;;;;1.05;1.05;;;;;;;9.69;68.05;103293.47;5085223;28;20103;-80
2023/12/18 00:13:40;;;;;;;1.30;1.20;;;;;;;9.77;67.87;103298.91;5087151;28;20055;-80
2023/12/18 00:16:07;;;;;;;0.15;0.15;;;;;;;9.77;67.77;103296.28;5086226;28;20422;-81
2023/12/18 00:18:33;;;;;;;0.20;0.20;;;;;;;9.80;67.66;103303.38;5087215;28;20102;-80
2023/12/18 00:20:59;;;;;;;0.82;0.82;;;;;;;9.77;67.86;103290.06;5083373;28;20025;-79
2023/12/18 00:23:26;;;;;;;0.68;0.68;;;;;;;9.77;67.52;103290.06;5087234;28;20475;-80
2023/12/18 00:25:52;;;;;;;0.17;0.17;;;;;;;9.64;67.72;103281.84;5086897;28;20051;-81
2023/12/18 00:28:18;;;;;;;0.40;0.40;;;;;;;9.75;67.82;103275.91;5087825;28;20016;-81
2023/12/18 00:30:44;;;;;;;0.65;0.65;;;;;;;9.75;67.37;103276.81;5085791;28;20034;-81
2023/12/18 00:33:11;;;;;;;0.20;0.20;;;;;;;9.67;68.00;103268.69;5087710;28;20036;-80
2023/12/18 00:35:37;;;;;;;1.27;1.00;;;;;;;9.65;67.91;103266.88;5085320;28;20029;-80
2023/12/18 00:38:06;;;;;;;0.52;0.52;;;;;;;9.78;67.78;103275.97;5075430;28;20025;-82
2023/12/18 00:40:35;;;;;;;0.93;0.93;;;;;;;9.73;67.86;103278.50;5073843;28;20511;-81
2023/12/18 00:43:01;;;;;;;0.30;0.30;;;;;;;9.70;67.88;103281.97;5071893;28;20028;-80
2023/12/18 00:45:27;;;;;;;4.68;2.92;;;;;;;9.69;68.07;103272.28;5075009;28;20028;-80
2023/12/18 00:47:54;;;;;;;0.90;0.90;;;;;;;9.69;67.99;103277.56;5076606;28;20020;-80
2023/12/18 00:50:20;;;;;;;0.80;0.80;;;;;;;9.67;68.32;103273.06;5074766;28;20035;-81
2023/12/18 00:52:46;;;;;;;0.10;0.10;;;;;;;9.67;68.25;103273.06;5076791;28;20029;-81
2023/12/18 00:55:12;;;;;;;0.40;0.40;;;;;;;9.70;67.97;103271.38;5074130;28;20514;-81
2023/12/18 00:57:38;;;;;;;0.10;0.10;;;;;;;9.69;68.38;103271.38;5074388;28;20032;-81
2023/12/18 01:00:05;;;;;;;0.20;0.20;;;;;;;9.74;68.13;103268.81;5077785;28;20080;-80
2023/12/18 01:02:31;;;;;;;0.20;0.20;;;;;;;9.78;68.33;103270.69;5075742;28;20028;-80
2023/12/18 01:04:57;;;;;;;0.38;0.38;;;;;;;9.74;68.30;103269.72;5077144;28;20371;-80
2023/12/18 01:07:24;;;;;;;0.20;0.20;;;;;;;9.76;68.14;103267.09;5075859;28;20035;-81
2023/12/18 01:09:50;;;;;;;1.35;1.25;;;;;;;9.71;68.21;103275.84;5076219;28;20086;-81
2023/12/18 01:12:16;;;;;;;0.22;0.22;;;;;;;9.78;68.12;103278.63;5076283;28;20103;-80
2023/12/18 01:14:44;;;;;;;6.75;1.52;;;;;;;9.77;68.24;103274.19;5075565;28;20037;-81
2023/12/18 01:17:11;;;;;;;0.43;0.28;;;;;;;9.73;68.39;103267.91;5075345;28;20025;-80
2023/12/18 01:19:37;;;;;;;0.20;0.20;;;;;;;9.75;68.40;103262.69;5077587;28;20040;-80
2023/12/18 01:22:04;;;;;;;1.00;1.00;;;;;;;9.77;68.56;103258.28;5081151;28;20019;-80
2023/12/18 01:24:30;;;;;;;0.55;0.55;;;;;;;9.79;68.35;103253.94;5088808;28;20081;-81
2023/12/18 01:26:56;;;;;;;0.10;0.10;;;;;;;9.74;68.44;103252.94;5090503;28;20031;-80
2023/12/18 01:29:22;;;;;;;0.20;0.20;;;;;;;9.66;68.54;103251.00;5085741;28;20032;-80
2023/12/18 01:31:48;;;;;;;12.32;1.95;;;;;;;9.67;68.53;103250.16;5088481;28;20028;-80
2023/12/18 01:34:14;;;;;;;1.20;1.17;;;;;;;9.64;68.92;103252.72;5090484;28;20028;-80
2023/12/18 01:36:41;;;;;;;2.22;1.80;;;;;;;9.69;68.63;103260.78;5089120;28;20030;-81
2023/12/18 01:39:07;;;;;;;0.22;0.22;;;;;;;9.72;68.79;103258.22;5102736;28;20031;-80
2023/12/18 01:41:36;;;;;;;2.22;1.65;;;;;;;9.71;68.50;103259.06;5093994;28;20485;-81
2023/12/18 01:44:05;;;;;;;0.65;0.65;;;;;;;9.78;68.57;103262.72;5088061;28;20095;-81
2023/12/18 01:46:35;;;;;;;0.22;0.22;;;;;;;9.77;68.40;103260.94;5091842;28;20024;-81
2023/12/18 01:49:02;;;;;;;0.20;0.20;;;;;;;9.77;68.53;103253.00;5088896;28;20020;-80
2023/12/18 01:51:29;;;;;;;1.27;1.17;;;;;;;9.80;68.41;103258.38;5086159;28;20780;-81
2023/12/18 01:53:58;;;;;;;0.50;0.50;;;;;;;9.80;68.56;103251.31;5080344;28;20050;-80
2023/12/18 01:56:28;;;;;;;0.40;0.40;;;;;;;9.81;68.63;103245.16;5089413;28;20095;-82
2023/12/18 01:58:58;;;;;;;1.55;1.15;;;;;;;9.83;68.63;103259.34;5086599;28;20020;-81
2023/12/18 02:01:24;;;;;;;0.20;0.20;;;;;;;9.69;68.78;103261.69;5084504;28;20024;-81
2023/12/18 02:03:52;;;;;;;1.08;1.08;;;;;;;9.82;68.53;103267.22;5085318;28;20066;-80
2023/12/18 02:06:19;;;;;;;0.25;0.25;;;;;;;9.70;68.43;103271.38;5089401;28;20080;-81
2023/12/18 02:08:45;;;;;;;0.28;0.28;;;;;;;9.85;68.51;103269.97;5089092;28;20273;-82
2023/12/18 02:11:12;;;;;;;0.63;0.55;;;;;;;9.90;68.33;103257.72;5089881;28;20028;-81
2023/12/18 02:13:40;;;;;;;0.57;0.57;;;;;;;9.88;68.52;103254.13;5089826;28;20028;-80
2023/12/18 02:16:07;;;;;;;4.32;2.15;;;;;;;9.83;68.50;103251.41;5089796;28;20028;-81
2023/12/18 02:18:33;;;;;;;0.20;0.20;;;;;;;9.91;68.32;103250.69;5086252;28;20066;-81
2023/12/18 02:21:00;;;;;;;1.30;0.65;;;;;;;9.86;68.38;103247.91;5089597;28;20042;-82
2023/12/18 02:23:26;;;;;;;0.10;0.10;;;;;;;9.88;68.50;103251.47;5091474;28;20028;-82
2023/12/18 02:25:52;;;;;;;0.55;0.55;;;;;;;9.95;68.28;103250.75;5089414;28;20030;-81
2023/12/18 02:28:18;;;;;;;10.50;3.50;;;;;;;9.96;68.35;103244.59;5087897;28;20031;-82
2023/12/18 02:30:45;;;;;;;1.48;1.08;;;;;;;9.86;68.60;103243.50;5086930;28;20036;-81
2023/12/18 02:33:11;;;;;;;0.28;0.28;;;;;;;10.00;68.36;103242.91;5090181;28;20030;-81
2023/12/18 02:35:37;;;;;;;0.43;0.43;;;;;;;10.04;68.07;103245.66;5091050;28;20055;-80
2023/12/18 02:38:03;;;;;;;0.20;0.20;;;;;;;9.95;68.41;103234.84;5089590;28;20036;-80
2023/12/18 02:40:30;;;;;;;0.50;0.50;;;;;;;10.00;68.40;103241.13;5087885;28;20060;-80
2023/12/18 02:42:56;;;;;;;0.30;0.30;;;;;;;10.02;68.19;103234.13;5087449;28;20043;-80
2023/12/18 02:45:23;;;;;;;2.90;1.17;;;;;;;9.99;68.08;103228.78;5086696;28;20020;-79
2023/12/18 02:47:49;;;;;;;0.20;0.20;;;;;;;10.01;68.02;103229.69;5087418;28;20043;-80
2023/12/18 02:50:16;;;;;;;0.20;0.20;;;;;;;9.99;68.30;103227.88;5083826;28;20111;-80
2023/12/18 02:52:42;;;;;;;39.65;2.75;;;;;;;9.93;68.47;103233.97;5086043;28;20041;-80
2023/12/18 02:55:11;;;;;;;0.73;0.73;;;;;;;9.96;68.37;103236.66;5089658;28;20557;-80
2023/12/18 02:57:37;;;;;;;0.20;0.20;;;;;;;9.94;68.45;103225.13;5080461;28;20028;-80
2023/12/18 03:00:06;;;;;;;1.75;1.75;;;;;;;9.93;68.42;103233.97;5087256;28;20029;-80
2023/12/18 03:02:35;;;;;;;0.38;0.38;;;;;;;9.97;68.28;103233.16;5084673;28;20036;-81
2023/12/18 03:05:01;;;;;;;0.38;0.38;;;;;;;9.88;68.63;103235.59;5086894;28;20078;-81
2023/12/18 03:07:27;;;;;;;0.20;0.20;;;;;;;9.94;68.47;103229.53;5089637;28;20028;-81
2023/12/18 03:09:53;;;;;;;0.20;0.20;;;;;;;9.87;68.95;103223.22;5091140;28;20039;-81
2023/12/18 03:12:20;;;;;;;0.90;0.90;;;;;;;9.94;68.38;103233.06;5087243;28;20031;-80
2023/12/18 03:14:46;;;;;;;0.85;0.70;;;;;;;9.94;68.83;103225.13;5084109;28;20033;-81
2023/12/18 03:17:12;;;;;;;0.75;0.75;;;;;;;9.98;68.53;103221.69;5093691;28;21091;-79
2023/12/18 03:19:38;;;;;;;1.15;1.15;;;;;;;9.94;68.55;103225.13;5087006;28;20518;-79
2023/12/18 03:22:04;;;;;;;0.20;0.20;;;;;;;10.04;68.47;103231.50;5090425;28;20117;-79
2023/12/18 03:24:30;;;;;;;2.28;2.00;;;;;;;10.00;68.85;103232.31;5092981;28;20043;-80
2023/12/18 03:26:56;;;;;;;0.20;0.20;;;;;;;10.02;68.40;103214.72;5088547;28;20103;-79
2023/12/18 03:29:23;;;;;;;0.90;0.90;;;;;;;10.00;68.87;103219.97;5086557;28;20031;-79
2023/12/18 03:31:49;;;;;;;0.57;0.57;;;;;;;9.99;68.81;103209.34;5084008;28;20032;-79
2023/12/18 03:34:15;;;;;;;0.80;0.80;;;;;;;9.92;69.03;103203.03;5088514;28;20043;-79
2023/12/18 03:36:41;;;;;;;1.48;1.38;;;;;;;9.89;68.91;103221.50;5087775;28;20047;-80
2023/12/18 03:39:07;;;;;;;0.32;0.32;;;;;;;10.01;68.79;103202.31;5084368;28;20028;-79
2023/12/18 03:41:33;;;;;;;2.30;2.10;;;;;;;9.94;68.82;103208.34;5086317;28;20032;-80
2023/12/18 03:44:00;;;;;;;1.30;1.30;;;;;;;9.97;68.84;103198.72;5088169;28;20036;-80
2023/12/18 03:46:26;;;;;;;0.20;0.20;;;;;;;10.07;68.40;103204.19;5085746;28;20198;-80
2023/12/18 03:48:52;;;;;;;0.50;0.50;;;;;;;10.03;68.71;103205.88;5081342;28;20387;-79
2023/12/18 03:51:18;;;;;;;0.20;0.20;;;;;;;10.13;68.53;103206.97;5085493;28;20024;-79
2023/12/18 03:53:44;;;;;;;0.30;0.30;;;;;;;9.98;68.88;103195.22;5088144;28;20033;-79
2023/12/18 03:56:10;;;;;;;0.20;0.20;;;;;;;10.01;68.69;103192.63;5093743;28;20091;-80
2023/12/18 03:58:37;;;;;;;0.20;0.20;;;;;;;10.01;69.11;103184.66;5091843;28;20091;-80
2023/12/18 04:01:05;;;;;;;0.43;0.43;;;;;;;10.03;69.06;103188.25;5085597;28;20044;-80
2023/12/18 04:03:32;;;;;;;1.55;0.77;;;;;;;10.02;68.78;103190.88;5085250;28;20035;-80
2023/12/18 04:05:58;;;;;;;1.33;1.30;;;;;;;10.07;68.83;103198.88;5085059;28;20035;-80
2023/12/18 04:08:24;;;;;;;0.30;0.30;;;;;;;9.98;68.98;103200.50;5083672;28;20024;-79
2023/12/18 04:10:50;;;;;;;0.10;0.10;;;;;;;10.10;68.88;103199.84;5087616;28;20035;-79
2023/12/18 04:13:16;;;;;;;0.43;0.43;;;;;;;10.10;68.94;103196.31;5086430;28;20028;-81
2023/12/18 04:15:42;;;;;;;1.65;1.55;;;;;;;10.13;68.79;103188.41;5084875;28;20056;-80
2023/12/18 04:18:09;;;;;;;0.35;0.35;;;;;;;10.12;69.05;103189.28;5085963;28;20021;-80
2023/12/18 04:20:35;;;;;;;0.50;0.50;;;;;;;10.10;69.04;103189.25;5084416;28;20113;-81
2023/12/18 04:23:01;;;;;;;0.73;0.73;;;;;;;10.07;69.12;103188.28;5084943;28;20043;-81
2023/12/18 04:25:27;;;;;;;0.30;0.30;;;;;;;10.17;68.81;103182.34;5084915;28;20024;-80
2023/12/18 04:27:53;;;;;;;0.40;0.40;;;;;;;10.23;68.64;103181.53;5083129;28;20518;-80
2023/12/18 04:30:20;;;;;;;0.47;0.47;;;;;;;10.25;68.85;103188.66;5083469;28;20048;-80
2023/12/18 04:32:46;;;;;;;0.30;0.30;;;;;;;10.23;68.93;103190.41;5083808;28;20029;-80
2023/12/18 04:35:12;;;;;;;0.45;0.45;;;;;;;10.20;68.73;103182.38;5084618;28;20021;-81
2023/12/18 04:37:38;;;;;;;0.77;0.77;;;;;;;10.15;68.87;103189.34;5084384;28;20020;-81
2023/12/18 04:40:05;;;;;;;0.45;0.45;;;;;;;10.20;68.80;103190.31;5083186;28;20029;-80
2023/12/18 04:42:31;;;;;;;1.38;1.33;;;;;;;10.21;68.89;103192.13;5085786;28;20027;-80
2023/12/18 04:44:58;;;;;;;0.20;0.20;;;;;;;10.26;68.75;103185.16;5084701;28;20028;-80
2023/12/18 04:47:25;;;;;;;0.20;0.20;;;;;;;10.29;68.76;103193.19;5085170;28;20016;-81
2023/12/18 04:49:51;;;;;;;0.30;0.30;;;;;;;10.26;68.62;103200.16;5082134;28;20021;-80
2023/12/18 04:52:17;;;;;;;1.35;0.98;;;;;;;10.23;69.03;103205.38;5084045;28;20039;-80
2023/12/18 04:54:43;;;;;;;2.55;1.30;;;;;;;10.21;68.77;103202.72;5082856;28;20029;-80
2023/12/18 04:57:09;;;;;;;0.20;0.20;;;;;;;10.21;68.96;103202.72;5083800;28;20035;-80
2023/12/18 04:59:35;;;;;;;0.25;0.25;;;;;;;10.23;68.67;103195.72;5087181;28;20110;-80
2023/12/18 05:02:02;;;;;;;0.75;0.68;;;;;;;10.19;68.88;103193.84;5084858;28;20115;-81
2023/12/18 05:04:28;;;;;;;0.65;0.65;;;;;;;10.15;69.01;103181.41;5085553;28;20024;-81
2023/12/18 05:06:54;;;;;;;0.32;0.32;;;;;;;10.18;68.83;103176.16;5086486;28;20563;-81
2023/12/18 05:09:20;;;;;;;0.22;0.22;;;;;;;10.14;68.84;103180.53;5086990;28;20028;-81
2023/12/18 05:11:46;;;;;;;1.95;0.95;;;;;;;10.17;68.73;103174.38;5089796;28;20054;-80
2023/12/18 05:14:12;;;;;;;0.10;0.10;;;;;;;10.07;69.24;103168.03;5088964;28;20487;-80
2023/12/18 05:16:39;;;;;;;0.35;0.35;;;;;;;10.08;69.44;103171.53;5086215;28;20027;-80
2023/12/18 05:19:05;;;;;;;0.20;0.20;;;;;;;10.14;68.89;103176.97;5087138;28;20062;-79
2023/12/18 05:21:31;;;;;;;0.22;0.22;;;;;;;10.04;69.20;103174.16;5087025;28;20116;-79
2023/12/18 05:23:57;;;;;;;0.17;0.17;;;;;;;10.12;68.91;103178.69;5086623;28;20059;-80
2023/12/18 05:26:23;;;;;;;0.75;0.75;;;;;;;10.08;69.17;103179.50;5085792;28;20039;-80
2023/12/18 05:28:49;;;;;;;1.10;1.10;;;;;;;10.15;69.29;103173.47;5086607;28;20028;-80
2023/12/18 05:31:17;;;;;;;0.15;0.15;;;;;;;10.08;68.97;103174.19;5088129;28;20039;-80
2023/12/18 05:33:43;;;;;;;0.52;0.52;;;;;;;10.03;69.21;103176.75;5084019;28;20487;-81
2023/12/18 05:36:10;;;;;;;0.20;0.20;;;;;;;10.06;69.10;103176.81;5088728;28;20470;-81
2023/12/18 05:38:36;;;;;;;0.20;0.20;;;;;;;10.08;69.03;103179.50;5086434;28;20495;-80
2023/12/18 05:41:02;;;;;;;2.65;2.47;;;;;;;10.07;69.23;103178.63;5087363;28;20406;-80
2023/12/18 05:43:28;;;;;;;0.22;0.22;;;;;;;10.03;68.94;103190.91;5088720;28;20057;-81
2023/12/18 05:45:54;;;;;;;0.17;0.17;;;;;;;10.11;69.13;103190.16;5087665;28;20020;-81
2023/12/18 05:48:21;;;;;;;1.00;0.95;;;;;;;10.15;68.89;103189.34;5088471;28;20085;-81
2023/12/18 05:50:47;;;;;;;0.10;0.10;;;;;;;10.11;68.93;103180.44;5088084;28;20059;-82
2023/12/18 05:53:13;;;;;;;0.35;0.35;;;;;;;10.11;69.03;103187.50;5090187;28;20031;-81
2023/12/18 05:55:39;;;;;;;0.50;0.50;;;;;;;10.12;68.99;103192.84;5083272;28;20028;-81
2023/12/18 05:58:05;;;;;;;0.20;0.20;;;;;;;10.15;68.64;103192.00;5083393;28;20596;-80
2023/12/18 06:00:31;;;;;;;2.15;0.90;;;;;;;10.17;68.90;103183.22;5084482;28;20025;-80
2023/12/18 06:02:57;;;;;;;1.30;1.27;;;;;;;10.19;68.87;103191.19;5091680;28;20039;-79
2023/12/18 06:05:24;;;;;;;0.15;0.15;;;;;;;10.14;69.23;103191.13;5090441;28;20436;-81
2023/12/18 06:07:50;;;;;;;2.50;0.95;;;;;;;10.11;69.28;103196.34;5082131;28;20383;-81
2023/12/18 06:10:16;;;;;;;0.20;0.20;;;;;;;10.17;69.10;103185.00;5086262;28;20035;-82
2023/12/18 06:12:42;;;;;;;0.40;0.40;;;;;;;10.20;69.15;103187.69;5084014;28;20028;-80
2023/12/18 06:15:08;;;;;;;0.60;0.60;;;;;;;10.26;68.76;103190.44;5084068;28;20100;-82
2023/12/18 06:17:35;;;;;;;1.60;1.50;;;;;;;10.29;68.84;103186.97;5086635;28;20062;-80
2023/12/18 06:20:01;;;;;;;0.20;0.20;;;;;;;10.27;69.06;103179.00;5085029;28;20028;-81
2023/12/18 06:22:27;;;;;;;0.65;0.65;;;;;;;10.29;68.77;103182.56;5086473;28;20032;-81
2023/12/18 06:24:53;;;;;;;1.95;1.85;;;;;;;10.31;68.92;103177.28;5083023;28;20051;-81
2023/12/18 06:27:19;;;;;;;0.10;0.10;;;;;;;10.28;69.04;103188.72;5084872;28;20036;-80
2023/12/18 06:29:45;;;;;;;0.25;0.25;;;;;;;10.22;68.74;103180.66;5085283;28;20040;-81
2023/12/18 06:32:12;;;;;;;0.30;0.30;;;;;;;10.15;69.14;103176.09;5085425;28;20031;-80
2023/12/18 06:34:39;;;;;;;0.20;0.20;;;;;;;10.24;69.19;103186.00;5088875;28;20020;-82
2023/12/18 06:37:05;;;;;;;0.10;0.10;;;;;;;10.28;68.86;103183.44;5090474;28;20076;-82
2023/12/18 06:39:31;;;;;;;0.40;0.40;;;;;;;10.23;69.13;103176.25;5093190;28;20043;-81
2023/12/18 06:41:57;;;;;;;0.88;0.88;;;;;;;10.20;69.22;103185.94;5087594;28;20028;-81
2023/12/18 06:44:23;;;;;;;2.67;2.47;;;;;;;10.21;69.16;103181.53;5087773;28;20031;-82
2023/12/18 06:46:49;;;;;;;0.45;0.45;;;;;;;10.18;69.31;103178.78;5085008;28;20121;-82
2023/12/18 06:49:15;;;;;;;0.20;0.20;;;;;;;10.23;69.39;103169.22;5089274;28;20032;-81
2023/12/18 06:51:44;;;;;;;0.10;0.10;;;;;;;10.26;68.95;103171.91;5085430;28;20546;-81
2023/12/18 06:54:10;;;;;;;0.20;0.20;;;;;;;10.30;69.39;103176.38;5084584;28;20056;-81
2023/12/18 06:56:37;;;;;;;0.10;0.10;;;;;;;10.26;69.24;103178.97;5084998;28;20425;-79
2023/12/18 06:59:07;;;;;;;1.30;1.30;;;;;;;10.23;69.29;103184.19;5085946;28;20036;-80
2023/12/18 07:01:36;;;;;;;0.40;0.40;;;;;;;10.27;69.27;103178.06;5086533;28;20024;-81
2023/12/18 07:04:03;;;;;;;0.10;0.10;;;;;;;10.23;69.45;103179.81;5091000;28;20040;-81
2023/12/18 07:06:30;;;;;;;0.35;0.35;;;;;;;10.15;69.79;103171.69;5087894;28;20025;-81
2023/12/18 07:08:57;;;;;;;4.68;1.70;;;;;;;10.22;69.38;103172.72;5080639;28;20062;-81
2023/12/18 07:11:23;;;;;;;0.47;0.47;;;;;;;10.19;69.53;103177.94;5089251;28;20024;-81
2023/12/18 07:13:49;;;;;;;0.65;0.65;;;;;;;10.20;69.66;103170.03;5088172;28;20518;-81
2023/12/18 07:16:23;;;;;;;0.25;0.25;;;;;;;10.23;69.57;103170.94;5090963;28;20532;-81
2023/12/18 07:18:49;;;;;;;0.82;0.77;;;;;;;10.23;69.47;103168.28;5082280;28;20024;-81
2023/12/18 07:21:15;;;;;;;0.47;0.47;;;;;;;10.15;69.78;103176.09;5091071;28;20128;-81
2023/12/18 07:23:43;;;;;;;0.10;0.10;;;;;;;10.19;69.57;103172.66;5087640;28;20074;-81
2023/12/18 07:26:12;;;;;;;1.00;1.00;;;;;;;10.19;69.45;103173.56;5086750;28;20107;-81
2023/12/18 07:28:39;;;;;;;0.28;0.28;;;;;;;10.22;69.04;103172.72;5083915;28;20042;-82
2023/12/18 07:31:06;;;;;;;0.15;0.15;;;;;;;10.09;70.05;103165.38;5087410;28;20039;-82
2023/12/18 07:33:32;;;;;;;1.33;0.95;;;;;;;10.07;69.81;103172.41;5080449;28;20036;-81
2023/12/18 07:35:58;;;;;;;0.20;0.20;;;;;;;10.06;69.92;103170.66;5082023;28;20318;-82
2023/12/18 07:38:25;;;;;;;0.32;0.32;;;;;;;10.09;69.71;103168.03;5077992;28;20020;-81
2023/12/18 07:40:51;;;;;;;0.20;0.20;;;;;;;10.15;69.64;103165.50;5079568;28;20032;-81
2023/12/18 07:43:17;;;;;;;0.20;0.20;;;;;;;10.13;69.91;103170.78;5083832;28;20376;-82
2023/12/18 07:45:43;;;;;;;0.68;0.50;;;;;;;10.08;69.83;103168.91;5080981;28;20056;-80
2023/12/18 07:48:09;;;;;;;0.90;0.90;;;;;;;10.04;70.21;103168.84;5074528;28;20028;-82
2023/12/18 07:50:35;;;;;;;0.20;0.20;;;;;;;10.03;70.45;103160.84;5082918;28;20115;-82
2023/12/18 07:53:01;;;;;;;0.20;0.20;;;;;;;10.15;69.98;103161.09;5082487;28;20031;-81
2023/12/18 07:55:27;;;;;;;0.82;0.82;;;;;;;10.16;69.88;103164.66;5082261;28;20047;-81
2023/12/18 07:57:54;;;;;;;0.20;0.20;;;;;;;10.15;70.33;103165.50;5080618;28;20490;-81
2023/12/18 08:00:20;;;;;;;1.83;1.73;;;;;;;10.17;70.19;103175.28;5073956;28;20063;-80
2023/12/18 08:02:46;;;;;;;0.63;0.63;;;;;;;10.19;69.95;103175.28;5082104;28;20047;-81
2023/12/18 08:05:12;;;;;;;0.52;0.52;;;;;;;10.00;70.00;103172.28;5088474;28;20020;-81
2023/12/18 08:07:38;;;;;;;1.38;0.82;;;;;;;10.04;69.94;103167.94;5087891;28;20042;-81
2023/12/18 08:10:05;;;;;;;0.10;0.10;;;;;;;10.13;70.14;103169.88;5088096;28;20039;-81
2023/12/18 08:12:33;;;;;;;1.85;1.75;;;;;;;10.07;70.11;103168.03;5079642;28;20024;-81
2023/12/18 08:14:59;;;;;;;0.20;0.20;;;;;;;10.16;69.50;103170.81;5082520;28;20020;-81
2023/12/18 08:17:25;;;;;;;0.40;0.40;;;;;;;10.14;69.70;103174.31;5088006;28;20050;-84
2023/12/18 08:19:51;;;;;;;0.10;0.10;;;;;;;10.17;69.71;103174.38;5076291;28;20033;-84
2023/12/18 08:22:18;;;;;;;0.10;0.10;;;;;;;10.23;69.64;103169.22;5078474;28;20029;-82
2023/12/18 08:24:44;;;;;;;0.55;0.55;;;;;;;10.19;69.47;103172.66;5073356;28;20039;-81
2023/12/18 08:27:10;;;;;;;0.10;0.10;;;;;;;10.24;69.36;103175.38;5088230;28;20085;-83
2023/12/18 08:29:39;;;;;;;0.40;0.40;;;;;;;10.22;69.43;103175.38;5082590;28;20025;-81
2023/12/18 08:32:05;;;;;;;0.60;0.60;;;;;;;10.15;69.66;103182.28;5081265;28;20032;-81
2023/12/18 08:34:32;;;;;;;3.40;2.92;;;;;;;10.12;69.82;103176.03;5086918;28;20574;-81
2023/12/18 08:36:58;;;;;;;0.50;0.50;;;;;;;10.12;69.92;103176.94;5090183;28;20098;-81
2023/12/18 08:39:24;;;;;;;3.13;0.75;;;;;;;10.23;69.59;103173.59;5082381;28;20390;-79
2023/12/18 08:41:50;;;;;;;0.20;0.20;;;;;;;10.27;69.40;103176.34;5093769;28;20032;-81
2023/12/18 08:44:16;;;;;;;1.63;0.80;;;;;;;10.19;69.62;103167.34;5098051;28;20024;-81
2023/12/18 08:46:45;;;;;;;0.45;0.45;;;;;;;10.26;69.28;103174.56;5084976;28;20029;-80
2023/12/18 08:49:11;;;;;;;0.38;0.38;;;;;;;10.25;69.49;103167.47;5082575;28;20032;-79
2023/12/18 08:51:40;;;;;;;0.60;0.60;;;;;;;10.24;69.57;103170.97;5076244;28;20081;-80
2023/12/18 08:54:06;;;;;;;0.30;0.30;;;;;;;10.07;69.96;103168.03;5076558;28;20141;-80
2023/12/18 08:56:35;;;;;;;0.10;0.10;;;;;;;10.26;69.30;103166.59;5085610;28;20415;-81
2023/12/18 08:59:01;;;;;;;1.13;1.13;;;;;;;10.29;69.39;103164.03;5088792;28;20032;-81
2023/12/18 09:01:27;;;;;;;0.20;0.20;;;;;;;10.32;69.17;103158.75;5080108;28;20046;-81
2023/12/18 09:03:54;;;;;;;0.43;0.43;;;;;;;10.32;69.07;103152.59;5089193;28;20028;-82
2023/12/18 09:06:20;;;;;;;0.75;0.75;;;;;;;10.35;69.20;103144.69;5081209;28;20028;-82
2023/12/18 09:08:47;;;;;;;0.20;0.20;;;;;;;10.27;69.43;103144.53;5076074;28;20024;-80
2023/12/18 09:11:13;;;;;;;0.15;0.15;;;;;;;10.30;69.21;103139.28;5082211;28;20025;-82
2023/12/18 09:13:39;;;;;;;0.85;0.85;;;;;;;10.40;69.26;103142.16;5076810;28;20095;-80
2023/12/18 09:16:06;;;;;;;0.10;0.10;;;;;;;10.40;68.63;103150.97;5087047;28;20039;-80
2023/12/18 09:18:32;;;;;;;0.30;0.30;;;;;;;10.30;69.18;103152.53;5087024;28;20033;-79
2023/12/18 09:20:59;;;;;;;0.82;0.82;;;;;;;10.43;68.75;103142.19;5087473;28;20081;-79
2023/12/18 09:23:26;;;;;;;0.45;0.45;;;;;;;10.45;68.79;103144.00;5092422;28;20031;-82
2023/12/18 09:25:52;;;;;;;0.20;0.20;;;;;;;10.50;68.48;103149.38;5076390;28;20110;-81
2023/12/18 09:28:18;;;;;;;0.30;0.30;;;;;;;10.53;68.51;103146.81;5073048;28;20028;-81
2023/12/18 09:30:45;;;;;;;0.10;0.10;;;;;;;10.60;68.96;103146.03;5084831;28;20032;-79
2023/12/18 09:33:11;;;;;;;0.40;0.40;;;;;;;10.45;68.84;103157.25;5075976;28;20024;-81
2023/12/18 09:35:39;;;;;;;0.20;0.20;;;;;;;10.55;69.07;103144.19;5083683;28;20066;-78
2023/12/18 09:38:05;;;;;;;0.10;0.10;;;;;;;10.60;68.73;103138.06;5083155;28;20039;-79
2023/12/18 09:40:32;;;;;;;0.70;0.70;;;;;;;10.54;68.79;103143.25;5083366;28;20523;-79
2023/12/18 09:42:58;;;;;;;0.40;0.40;;;;;;;10.63;68.40;103142.53;5085084;28;20451;-80
2023/12/18 09:45:25;;;;;;;0.17;0.17;;;;;;;10.67;68.26;103141.72;5083484;28;20008;-80
2023/12/18 09:47:52;;;;;;;0.60;0.60;;;;;;;10.86;68.36;103139.38;5087786;28;20024;-80
2023/12/18 09:50:19;;;;;;;0.20;0.20;;;;;;;10.81;68.29;103141.94;5083366;28;20042;-80
2023/12/18 09:55:31;;;;;;;0.10;0.10;;;;;;;10.67;68.31;103147.91;5086699;27;1944249;-80
2023/12/18 09:57:59;;;;;;;0.68;0.68;;;;;;;10.82;67.87;103138.44;5133219;27;20211;-80
2023/12/18 10:00:27;;;;;;;0.40;0.40;;;;;;;10.87;67.79;103130.56;5117633;28;20035;-79
2023/12/18 10:02:55;;;;;;;1.30;0.95;;;;;;;10.89;67.70;103129.72;5126083;28;20092;-79
2023/12/18 10:05:21;;;;;;;0.77;0.50;;;;;;;10.78;67.88;103136.59;5126681;28;20038;-79
2023/12/18 10:07:48;;;;;;;0.20;0.20;;;;;;;10.84;67.73;103136.69;5125429;28;20498;-79
2023/12/18 10:10:15;;;;;;;0.75;0.75;;;;;;;10.81;67.54;103132.22;5109695;28;20036;-81
2023/12/18 10:12:41;;;;;;;0.57;0.57;;;;;;;10.90;67.19;103110.25;5110558;28;20511;-81
2023/12/18 10:15:09;;;;;;;0.32;0.32;;;;;;;10.99;67.34;103114.81;5113743;28;20050;-81
2023/12/18 10:17:37;;;;;;;0.10;0.10;;;;;;;11.07;67.33;103122.91;5113730;28;20039;-79
2023/12/18 10:20:04;;;;;;;1.08;1.02;;;;;;;11.00;67.06;103112.19;5113423;28;20028;-80
2023/12/18 10:22:31;;;;;;;1.98;1.48;;;;;;;11.10;66.51;103107.00;5104474;28;20063;-81
2023/12/18 10:24:58;;;;;;;1.30;1.30;;;;;;;11.07;67.36;103097.25;5118713;28;20028;-80
2023/12/18 10:27:25;;;;;;;1.55;1.45;;;;;;;10.87;66.97;103110.22;5113453;28;20081;-79
2023/12/18 10:29:54;;;;;;;1.55;1.45;;;;;;;10.98;66.84;103098.00;5119270;28;20097;-81
2023/12/18 10:32:22;;;;;;;0.30;0.30;;;;;;;11.07;66.84;103093.72;5108392;28;20079;-80
2023/12/18 10:34:50;;;;;;;0.80;0.80;;;;;;;10.99;66.63;103090.94;5113708;28;20036;-81
2023/12/18 10:37:19;;;;;;;0.10;0.10;;;;;;;11.07;66.49;103085.75;5106278;28;20517;-81
2023/12/18 10:39:48;;;;;;;2.08;1.98;;;;;;;11.04;66.89;103086.63;5115162;28;20217;-81
2023/12/18 10:42:36;;;;;;;0.30;0.30;;;;;;;10.99;66.89;103078.56;5114549;28;20024;-80
2023/12/18 10:45:06;;;;;;;4.47;1.85;;;;;;;11.04;67.20;103081.31;5106877;28;20044;-80
2023/12/18 10:47:33;;;;;;;0.55;0.55;;;;;;;11.09;66.66;103076.03;5104577;28;20024;-81
2023/12/18 10:50:02;;;;;;;0.28;0.28;;;;;;;11.07;67.40;103072.50;5105295;28;20115;-80
2023/12/18 10:52:30;;;;;;;0.55;0.55;;;;;;;11.05;67.06;103066.25;5101448;28;20524;-81
2023/12/18 10:54:59;;;;;;;1.00;1.00;;;;;;;11.09;66.84;103066.34;5111224;28;20049;-81
2023/12/18 10:57:26;;;;;;;1.17;1.17;;;;;;;11.09;66.77;103060.13;5105242;28;20036;-80
2023/12/18 10:59:53;;;;;;;1.75;1.65;;;;;;;11.11;66.77;103069.88;5107705;28;20043;-78
2023/12/18 11:02:19;;;;;;;2.30;2.17;;;;;;;11.08;67.14;103069.84;5107863;28;20058;-80
2023/12/18 11:04:47;;;;;;;2.47;2.30;;;;;;;11.17;66.85;103062.00;5103579;28;20035;-80
2023/12/18 11:07:16;;;;;;;0.90;0.90;;;;;;;11.17;66.74;103066.44;5101629;28;20376;-80
2023/12/18 11:09:44;;;;;;;1.85;1.50;;;;;;;11.27;66.68;103062.13;5100343;28;20028;-80
2023/12/18 11:12:11;;;;;;;0.32;0.32;;;;;;;11.21;66.39;103047.03;5090131;28;20021;-81
2023/12/18 11:17:56;;;;;;;1.05;1.05;;;;;;;11.19;66.44;103055.84;5106774;27;20397;-80
2023/12/18 11:20:35;;;;;;;0.50;0.50;;;;;;;11.26;66.80;103047.09;5091769;28;20059;-80
2023/12/18 11:23:02;;;;;;;0.68;0.68;;;;;;;11.26;66.63;103047.09;5092277;28;20550;-80
2023/12/18 11:25:41;;;;;;;0.10;0.10;;;;;;;11.24;66.44;103049.72;5098005;28;20513;-80
2023/12/18 11:28:08;;;;;;;0.82;0.82;;;;;;;11.25;66.45;103048.84;5094968;28;20372;-81
2023/12/18 11:30:37;;;;;;;0.65;0.65;;;;;;;11.10;66.35;103049.56;5093595;28;20032;-81